createdAt,value
2023-05-06T00:00:45.238Z,4.75
2023-05-06T00:05:48.022Z,4.35
2023-05-06T00:10:50.420Z,3.67
2023-05-06T00:15:52.803Z,4.38
2023-05-06T00:20:55.186Z,5.95
2023-05-06T00:25:57.663Z,6.78
2023-05-06T00:30:59.433Z,5.93
2023-05-06T00:36:02.012Z,5.78
2023-05-06T00:41:04.362Z,5.53
2023-05-06T00:46:07.983Z,9.93
2023-05-06T00:51:10.343Z,10.52
2023-05-06T00:56:12.969Z,10.30
2023-05-06T01:01:15.932Z,6.97
2023-05-06T01:06:37.817Z,3.97
2023-05-06T01:11:49.534Z,3.20
2023-05-06T01:16:55.330Z,4.30
2023-05-06T01:22:01.286Z,5.07
2023-05-06T01:27:03.210Z,6.97
2023-05-06T01:32:18.479Z,11.10
2023-05-06T01:37:29.973Z,9.77
2023-05-06T01:42:33.759Z,9.27
2023-05-06T01:47:36.985Z,12.13
2023-05-06T01:52:39.247Z,9.93
2023-05-06T01:57:41.129Z,13.73
2023-05-06T02:02:43.278Z,8.20
2023-05-06T02:07:45.720Z,9.63
2023-05-06T02:12:48.458Z,10.05
2023-05-06T02:17:50.626Z,10.30
2023-05-06T02:22:54.117Z,11.70
2023-05-06T02:27:56.471Z,10.95
2023-05-06T02:32:58.760Z,11.35
2023-05-06T02:38:01.837Z,10.65
2023-05-06T02:43:03.876Z,11.02
2023-05-06T02:48:06.381Z,11.18
2023-05-06T02:53:10.498Z,12.23
2023-05-06T02:58:12.924Z,11.55
2023-05-06T03:03:15.152Z,14.05
2023-05-06T03:08:16.965Z,11.65
2023-05-06T03:13:33.465Z,11.20
2023-05-06T03:18:35.291Z,10.55
2023-05-06T03:23:37.082Z,9.10
2023-05-06T03:28:38.877Z,10.07
2023-05-06T03:33:41.103Z,10.15
2023-05-06T03:38:43.051Z,27.33
2023-05-06T03:43:48.019Z,13.98
2023-05-06T03:48:49.863Z,11.75
2023-05-06T03:53:54.102Z,13.68
2023-05-06T03:58:56.686Z,12.38
2023-05-06T04:03:59.177Z,13.27
2023-05-06T04:09:02.400Z,12.40
2023-05-06T04:14:04.219Z,12.27
2023-05-06T04:19:21.536Z,12.77
2023-05-06T04:24:23.389Z,12.18
2023-05-06T04:29:29.070Z,11.15
2023-05-06T04:34:47.362Z,11.10
2023-05-06T04:39:49.408Z,9.65
2023-05-06T04:44:51.330Z,9.27
2023-05-06T04:49:53.130Z,9.90
2023-05-06T04:55:11.278Z,9.18
2023-05-06T05:00:14.717Z,9.30
2023-05-06T05:05:16.737Z,11.60
2023-05-06T05:10:18.626Z,10.40
2023-05-06T05:15:21.311Z,10.13
2023-05-06T05:20:24.319Z,11.27
2023-05-06T05:25:26.378Z,12.57
2023-05-06T05:30:28.167Z,9.77
2023-05-06T05:35:30.029Z,11.35
2023-05-06T05:40:31.821Z,9.20
2023-05-06T05:45:33.949Z,9.60
2023-05-06T05:50:35.703Z,9.73
2023-05-06T05:55:37.520Z,9.30
2023-05-06T06:00:39.300Z,10.50
2023-05-06T06:05:41.285Z,9.07
2023-05-06T06:10:43.021Z,9.75
2023-05-06T06:15:45.279Z,9.20
2023-05-06T06:20:47.022Z,8.80
2023-05-06T06:25:49.307Z,8.68
2023-05-06T06:30:51.066Z,5.50
2023-05-06T06:35:52.865Z,5.32
2023-05-06T06:40:54.815Z,4.85
2023-05-06T06:45:56.871Z,4.68
2023-05-06T06:50:58.702Z,5.65
2023-05-06T06:56:00.714Z,5.60
2023-05-06T07:01:02.788Z,4.75
2023-05-06T07:06:20.411Z,5.43
2023-05-06T07:11:22.160Z,4.50
2023-05-06T07:16:24.545Z,3.80
2023-05-06T07:21:27.255Z,5.28
2023-05-06T07:26:29.574Z,5.07
2023-05-06T07:31:34.915Z,3.70
2023-05-06T07:36:40.738Z,4.10
2023-05-06T07:41:43.751Z,3.13
2023-05-06T07:47:00.459Z,3.42
2023-05-06T07:52:03.696Z,2.67
2023-05-06T07:57:05.596Z,3.03
2023-05-06T08:02:07.514Z,3.03
2023-05-06T08:07:10.924Z,2.75
2023-05-06T08:12:12.796Z,1.40
2023-05-06T08:17:14.806Z,2.05
2023-05-06T08:22:20.478Z,1.67
2023-05-06T08:27:22.228Z,1.38
2023-05-06T08:32:24.096Z,1.73
2023-05-06T08:37:26.471Z,1.50
2023-05-06T08:42:30.713Z,7.50
2023-05-06T08:47:32.761Z,1.10
2023-05-06T08:52:35.547Z,0.77
2023-05-06T08:57:38.217Z,0.68
2023-05-06T09:02:42.711Z,0.70
2023-05-06T09:07:45.607Z,0.90
2023-05-06T09:12:47.456Z,1.10
2023-05-06T09:17:54.165Z,1.30
2023-05-06T09:22:56.279Z,1.10
2023-05-06T09:28:09.466Z,0.95
2023-05-06T09:33:27.170Z,0.85
2023-05-06T09:38:29.281Z,1.00
2023-05-06T09:43:31.209Z,1.10
2023-05-06T09:48:33.565Z,1.75
2023-05-06T09:53:39.130Z,0.95
2023-05-06T09:58:42.028Z,0.85
2023-05-06T10:03:53.651Z,0.90
2023-05-06T10:08:56.957Z,0.88
2023-05-06T10:14:08.158Z,0.70
2023-05-06T10:19:27.044Z,0.82
2023-05-06T10:24:36.786Z,0.80
2023-05-06T10:29:54.805Z,0.60
2023-05-06T10:35:09.760Z,0.88
2023-05-06T10:40:15.653Z,1.90
2023-05-06T10:45:17.544Z,0.80
2023-05-06T10:50:27.510Z,0.82
2023-05-06T10:55:32.275Z,1.00
2023-05-06T11:00:35.152Z,1.05
2023-05-06T11:05:50.508Z,0.90
2023-05-06T11:10:53.289Z,1.00
2023-05-06T11:15:56.514Z,1.20
2023-05-06T11:21:01.172Z,0.90
2023-05-06T11:26:07.887Z,1.75
2023-05-06T11:31:10.198Z,0.73
2023-05-06T11:36:22.924Z,0.77
2023-05-06T11:41:24.749Z,1.17
2023-05-06T11:46:33.886Z,0.68
2023-05-06T11:51:36.325Z,0.70
2023-05-06T11:56:52.022Z,0.73
2023-05-06T12:01:53.836Z,0.90
2023-05-06T12:07:12.286Z,0.68
2023-05-06T12:12:22.378Z,0.95
2023-05-06T12:17:25.870Z,0.77
2023-05-06T12:22:28.154Z,0.60
2023-05-06T12:27:36.608Z,0.60
2023-05-06T12:32:58.834Z,0.68
2023-05-06T12:38:13.204Z,0.60
2023-05-06T12:43:15.152Z,12.07
2023-05-06T12:48:17.269Z,0.80
2023-05-06T12:53:33.125Z,0.60
2023-05-06T12:58:38.371Z,0.63
2023-05-06T13:03:40.986Z,0.60
2023-05-06T13:08:43.920Z,0.90
2023-05-06T13:13:48.413Z,0.70
2023-05-06T13:19:06.084Z,0.70
2023-05-06T13:24:10.967Z,0.75
2023-05-06T13:29:12.697Z,0.70
2023-05-06T13:34:14.761Z,0.60
2023-05-06T13:39:32.316Z,0.85
2023-05-06T13:44:42.029Z,0.70
2023-05-06T13:49:43.824Z,0.50
2023-05-06T13:54:46.313Z,0.68
2023-05-06T13:59:49.165Z,0.77
2023-05-06T14:04:51.791Z,0.47
2023-05-06T14:09:53.680Z,0.40
2023-05-06T14:14:55.797Z,0.45
2023-05-06T14:19:58.282Z,0.80
2023-05-06T14:25:03.128Z,0.63
2023-05-06T14:30:09.477Z,0.88
2023-05-06T14:35:28.098Z,0.75
2023-05-06T14:40:33.769Z,1.10
2023-05-06T14:45:50.446Z,0.77
2023-05-06T14:51:00.871Z,0.70
2023-05-06T14:56:03.649Z,0.60
2023-05-06T15:01:09.602Z,0.60
2023-05-06T15:06:14.399Z,1.45
2023-05-06T15:11:16.340Z,0.57
2023-05-06T15:16:18.139Z,0.60
2023-05-06T15:21:23.596Z,0.55
2023-05-06T15:26:40.214Z,0.68
2023-05-06T15:31:51.723Z,0.60
2023-05-06T15:37:10.515Z,0.40
2023-05-06T15:42:27.133Z,0.95
2023-05-06T15:47:43.803Z,0.70
2023-05-06T15:52:46.231Z,0.63
2023-05-06T15:57:53.636Z,0.50
2023-05-06T16:03:12.195Z,0.68
2023-05-06T16:08:15.525Z,0.70
2023-05-06T16:13:32.555Z,0.73
2023-05-06T16:18:34.888Z,0.80
2023-05-06T16:23:36.832Z,0.70
2023-05-06T16:28:40.422Z,0.60
2023-05-06T16:33:42.209Z,0.65
2023-05-06T16:38:47.514Z,0.80
2023-05-06T16:43:49.855Z,0.90
2023-05-06T16:48:54.337Z,1.30
2023-05-06T16:53:56.372Z,0.90
2023-05-06T16:58:58.246Z,0.80
2023-05-06T17:03:59.966Z,0.85
2023-05-06T17:09:01.898Z,0.77
2023-05-06T17:14:03.761Z,0.75
2023-05-06T17:19:08.664Z,0.68
2023-05-06T17:24:25.268Z,0.57
2023-05-06T17:29:42.454Z,1.13
2023-05-06T17:34:44.316Z,0.50
2023-05-06T17:39:47.224Z,0.82
2023-05-06T17:44:49.534Z,1.40
2023-05-06T17:49:53.424Z,1.10
2023-05-06T17:55:06.134Z,1.50
2023-05-06T18:00:14.076Z,0.95
2023-05-06T18:05:16.758Z,1.10
2023-05-06T18:10:21.566Z,1.13
2023-05-06T18:15:23.946Z,1.30
2023-05-06T18:20:26.072Z,1.45
2023-05-06T18:25:27.980Z,1.00
2023-05-06T18:30:29.706Z,1.13
2023-05-06T18:35:31.486Z,1.10
2023-05-06T18:40:34.113Z,1.23
2023-05-06T18:45:36.142Z,1.60
2023-05-06T18:50:37.911Z,4.25
2023-05-06T18:55:39.651Z,2.47
2023-05-06T19:00:41.603Z,1.80
2023-05-06T19:05:47.005Z,1.70
2023-05-06T19:10:48.754Z,2.17
2023-05-06T19:16:06.929Z,1.83
2023-05-06T19:21:12.496Z,1.77
2023-05-06T19:26:14.805Z,3.42
2023-05-06T19:31:31.683Z,1.80
2023-05-06T19:36:33.608Z,1.98
2023-05-06T19:41:36.770Z,2.95
2023-05-06T19:46:38.688Z,3.72
2023-05-06T19:51:43.451Z,4.03
2023-05-06T19:56:45.533Z,2.30
2023-05-06T20:01:47.502Z,4.47
2023-05-06T20:06:49.349Z,2.50
2023-05-06T20:12:07.199Z,2.25
2023-05-06T20:17:08.979Z,1.90
2023-05-06T20:22:14.725Z,2.50
2023-05-06T20:27:31.425Z,2.97
2023-05-06T20:32:33.344Z,2.40
2023-05-06T20:37:36.221Z,3.17
2023-05-06T20:42:38.139Z,2.53
2023-05-06T20:47:40.029Z,2.40
2023-05-06T20:52:42.037Z,2.55
2023-05-06T20:57:44.795Z,4.18
2023-05-06T21:02:46.720Z,2.30
2023-05-06T21:07:49.730Z,3.00
2023-05-06T21:12:51.575Z,2.03
2023-05-06T21:17:53.547Z,3.05
2023-05-06T21:22:58.054Z,4.13
2023-05-06T21:28:03.311Z,4.10
2023-05-06T21:33:06.643Z,4.13
2023-05-06T21:38:08.515Z,2.50
2023-05-06T21:43:18.867Z,2.00
2023-05-06T21:48:35.609Z,2.03
2023-05-06T21:53:37.629Z,1.70
2023-05-06T21:58:39.411Z,1.92
2023-05-06T22:03:41.611Z,2.15
2023-05-06T22:08:43.616Z,2.40
2023-05-06T22:13:45.725Z,2.05
2023-05-06T22:19:03.969Z,2.40
2023-05-06T22:24:07.419Z,2.70
2023-05-06T22:29:24.080Z,2.90
2023-05-06T22:34:26.177Z,2.80
2023-05-06T22:39:43.079Z,4.53
2023-05-06T22:44:44.924Z,3.53
2023-05-06T22:50:01.480Z,3.30
2023-05-06T22:55:03.575Z,2.40
2023-05-06T23:00:07.262Z,2.95
2023-05-06T23:05:09.459Z,2.60
2023-05-06T23:10:11.517Z,2.10
2023-05-06T23:15:28.183Z,2.50
2023-05-06T23:20:30.066Z,2.90
2023-05-06T23:25:34.913Z,2.40
2023-05-06T23:30:36.771Z,2.70
2023-05-06T23:35:38.572Z,2.90
2023-05-06T23:40:55.772Z,2.50
2023-05-06T23:45:57.605Z,2.25
2023-05-06T23:50:59.456Z,2.63
2023-05-06T23:56:01.280Z,2.83
